createdAt,value
2018-01-22T00:02:21.572Z,12.30
2018-01-22T00:04:53.327Z,12.30
2018-01-22T00:07:20.447Z,12.30
2018-01-22T00:09:47.566Z,12.30
2018-01-22T00:14:52.765Z,12.20
2018-01-22T00:17:20.202Z,12.20
2018-01-22T00:19:47.256Z,12.20
2018-01-22T00:22:17.365Z,12.30
2018-01-22T00:24:47.331Z,12.20
2018-01-22T00:27:22.959Z,12.20
2018-01-22T00:29:53.474Z,12.20
2018-01-22T00:32:20.129Z,12.20
2018-01-22T00:34:47.382Z,12.20
2018-01-22T00:37:17.304Z,12.20
2018-01-22T00:45:04.089Z,12.20
2018-01-22T00:47:30.813Z,12.10
2018-01-22T00:49:57.893Z,12.10
2018-01-22T00:52:25.303Z,12.10
2018-01-22T00:54:53.211Z,12.10
2018-01-22T00:57:19.886Z,12.10
2018-01-22T00:59:46.925Z,12.10
2018-01-22T01:02:14.380Z,12.00
2018-01-22T01:04:41.800Z,12.00
2018-01-22T01:07:09.221Z,12.00
2018-01-22T01:09:36.697Z,12.00
2018-01-22T01:12:05.423Z,12.00
2018-01-22T01:14:35.286Z,12.00
2018-01-22T01:17:02.374Z,12.00
2018-01-22T01:19:29.021Z,12.00
2018-01-22T01:24:34.646Z,11.90
2018-01-22T01:29:41.307Z,11.80
2018-01-22T01:32:08.447Z,11.80
2018-01-22T01:34:36.653Z,11.80
2018-01-22T01:37:04.086Z,11.80
2018-01-22T01:39:31.585Z,11.80
2018-01-22T01:41:58.716Z,11.80
2018-01-22T01:44:25.858Z,11.80
2018-01-22T01:46:52.900Z,11.80
2018-01-22T01:49:19.991Z,11.80
2018-01-22T01:51:53.337Z,11.80
2018-01-22T01:54:23.468Z,11.80
2018-01-22T01:56:51.331Z,11.80
2018-01-22T01:59:18.390Z,11.70
2018-01-22T02:01:45.420Z,11.80
2018-01-22T02:04:12.487Z,11.70
2018-01-22T02:06:40.741Z,11.70
2018-01-22T02:09:11.510Z,11.70
2018-01-22T02:11:38.551Z,11.70
2018-01-22T02:14:05.202Z,11.70
2018-01-22T02:16:32.245Z,11.70
2018-01-22T02:18:59.474Z,11.70
2018-01-22T02:21:29.368Z,11.70
2018-01-22T02:23:56.404Z,11.70
2018-01-22T02:26:23.486Z,11.60
2018-01-22T02:28:50.583Z,11.60
2018-01-22T02:31:17.380Z,11.60
2018-01-22T02:33:44.019Z,11.60
2018-01-22T02:36:10.685Z,11.60
2018-01-22T02:38:41.363Z,11.60
2018-01-22T02:41:08.415Z,11.60
2018-01-22T02:43:35.452Z,11.60
2018-01-22T02:46:02.115Z,11.60
2018-01-22T02:48:29.354Z,11.60
2018-01-22T02:50:59.461Z,11.50
2018-01-22T02:53:26.150Z,11.50
2018-01-22T02:55:59.474Z,11.50
2018-01-22T03:01:16.931Z,11.50
2018-01-22T03:06:12.690Z,11.50
2018-01-22T03:08:40.941Z,11.50
2018-01-22T03:11:07.605Z,11.50
2018-01-22T03:13:34.270Z,11.50
2018-01-22T03:16:02.478Z,11.50
2018-01-22T03:18:29.150Z,11.50
2018-01-22T03:20:57.002Z,11.50
2018-01-22T03:31:22.575Z,11.40
2018-01-22T03:33:49.321Z,11.40
2018-01-22T03:36:15.952Z,11.40
2018-01-22T03:38:43.386Z,11.40
2018-01-22T03:41:10.505Z,11.40
2018-01-22T03:43:37.241Z,11.40
2018-01-22T03:46:05.366Z,11.40
2018-01-22T03:48:32.021Z,11.40
2018-01-22T03:50:58.686Z,11.40
2018-01-22T03:53:29.383Z,11.40
2018-01-22T04:01:28.981Z,11.30
2018-01-22T04:03:55.659Z,11.30
2018-01-22T04:06:22.323Z,11.40
2018-01-22T04:08:49.149Z,11.40
2018-01-22T04:11:23.106Z,11.30
2018-01-22T04:13:53.430Z,11.30
2018-01-22T04:16:20.117Z,11.30
2018-01-22T04:18:47.555Z,11.30
2018-01-22T04:21:15.018Z,11.30
2018-01-22T04:23:41.674Z,11.30
2018-01-22T04:26:08.330Z,11.30
2018-01-22T04:28:35.102Z,11.30
2018-01-22T04:31:02.177Z,11.30
2018-01-22T04:33:29.590Z,11.30
2018-01-22T04:35:56.634Z,11.20
2018-01-22T04:38:24.126Z,11.30
2018-01-22T04:40:51.555Z,11.20
2018-01-22T04:43:19.096Z,11.20
2018-01-22T04:45:45.842Z,11.20
2018-01-22T04:48:13.322Z,11.30
2018-01-22T04:50:40.766Z,11.30
2018-01-22T04:53:08.928Z,11.20
2018-01-22T05:03:33.333Z,11.20
2018-01-22T05:06:00.441Z,11.20
2018-01-22T05:08:29.418Z,11.20
2018-01-22T05:10:56.061Z,11.20
2018-01-22T05:13:35.014Z,11.20
2018-01-22T05:16:05.505Z,11.20
2018-01-22T05:18:32.980Z,11.20
2018-01-22T05:21:00.822Z,11.20
2018-01-22T05:23:27.927Z,11.20
2018-01-22T05:26:05.235Z,11.20
2018-01-22T05:28:32.270Z,11.20
2018-01-22T05:30:59.062Z,11.20
2018-01-22T05:33:26.900Z,11.20
2018-01-22T05:35:54.377Z,11.20
2018-01-22T05:38:21.406Z,11.20
2018-01-22T05:40:48.076Z,11.20
2018-01-22T05:43:17.552Z,11.10
2018-01-22T05:45:44.215Z,11.10
2018-01-22T05:48:10.881Z,11.10
2018-01-22T05:50:37.533Z,11.10
2018-01-22T05:53:05.782Z,11.10
2018-01-22T05:55:32.829Z,11.10
2018-01-22T05:57:59.876Z,11.20
2018-01-22T06:00:27.313Z,11.20
2018-01-22T06:02:54.729Z,11.10
2018-01-22T06:05:21.438Z,11.10
2018-01-22T06:07:48.099Z,11.10
2018-01-22T06:12:54.655Z,11.10
2018-01-22T06:15:22.150Z,11.10
2018-01-22T06:17:53.432Z,11.10
2018-01-22T06:25:47.114Z,11.10
2018-01-22T06:28:14.198Z,11.10
2018-01-22T06:30:41.275Z,11.10
2018-01-22T06:33:08.118Z,11.00
2018-01-22T06:35:34.748Z,11.10
2018-01-22T06:38:01.584Z,11.10
2018-01-22T06:40:41.056Z,11.10
2018-01-22T06:43:08.109Z,11.10
2018-01-22T06:45:34.772Z,11.10
2018-01-22T06:48:01.820Z,11.10
2018-01-22T06:50:28.462Z,11.10
2018-01-22T06:52:55.551Z,11.00
2018-01-22T06:55:23.543Z,11.00
2018-01-22T06:57:50.608Z,11.00
2018-01-22T07:00:17.689Z,11.10
2018-01-22T07:02:53.128Z,11.00
2018-01-22T07:05:23.601Z,11.00
2018-01-22T07:07:53.538Z,11.00
2018-01-22T07:10:23.473Z,11.00
2018-01-22T07:12:59.078Z,10.90
2018-01-22T07:15:27.018Z,11.00
2018-01-22T07:17:54.132Z,10.90
2018-01-22T07:20:20.843Z,10.90
2018-01-22T07:22:47.556Z,10.90
2018-01-22T07:25:14.354Z,10.90
2018-01-22T07:27:53.032Z,10.90
2018-01-22T07:32:58.624Z,10.80
2018-01-22T07:35:29.558Z,10.80
2018-01-22T07:37:56.229Z,10.80
2018-01-22T07:40:35.089Z,10.80
2018-01-22T07:43:01.763Z,10.80
2018-01-22T07:45:28.807Z,10.80
2018-01-22T07:47:59.501Z,10.80
2018-01-22T07:50:26.190Z,10.80
2018-01-22T07:52:52.848Z,10.80
2018-01-22T07:55:20.285Z,10.80
2018-01-22T07:57:47.358Z,10.80
2018-01-22T08:00:14.821Z,10.80
2018-01-22T08:02:41.578Z,10.80
2018-01-22T08:05:09.063Z,10.80
2018-01-22T08:07:35.720Z,10.80
2018-01-22T08:20:36.828Z,10.80
2018-01-22T08:23:03.470Z,10.80
2018-01-22T08:33:29.554Z,10.70
2018-01-22T08:35:56.301Z,10.70
2018-01-22T08:38:23.797Z,10.70
2018-01-22T08:40:53.559Z,10.70
2018-01-22T08:43:20.613Z,10.70
2018-01-22T08:45:47.272Z,10.70
2018-01-22T08:48:15.332Z,10.70
2018-01-22T08:53:20.465Z,10.70
2018-01-22T08:58:35.200Z,10.70
2018-01-22T09:03:53.230Z,10.70
2018-01-22T09:06:20.301Z,10.70
2018-01-22T09:08:53.674Z,10.70
2018-01-22T09:11:23.658Z,10.70
2018-01-22T09:13:50.310Z,10.70
2018-01-22T09:16:17.358Z,10.70
2018-01-22T09:18:45.597Z,10.70
2018-01-22T09:21:13.056Z,10.60
2018-01-22T09:23:47.245Z,10.60
2018-01-22T09:26:17.554Z,10.70
2018-01-22T09:34:02.870Z,10.60
2018-01-22T09:36:29.567Z,10.60
2018-01-22T09:39:05.161Z,10.60
2018-01-22T09:52:08.570Z,10.60
2018-01-22T09:54:35.396Z,10.50
2018-01-22T09:57:02.076Z,10.50
2018-01-22T10:02:05.345Z,10.50
2018-01-22T10:04:32.814Z,10.60
2018-01-22T10:07:00.611Z,10.60
2018-01-22T10:09:29.740Z,10.60
2018-01-22T10:11:57.572Z,10.50
2018-01-22T10:14:25.469Z,10.60
2018-01-22T10:16:52.521Z,10.50
2018-01-22T10:19:19.988Z,10.50
2018-01-22T10:21:47.607Z,10.60
2018-01-22T10:24:17.758Z,10.50
2018-01-22T10:29:13.192Z,10.50
2018-01-22T10:31:40.282Z,10.50
2018-01-22T10:34:07.330Z,10.50
2018-01-22T10:36:35.682Z,10.50
2018-01-22T10:39:02.459Z,10.50
2018-01-22T10:46:46.370Z,10.50
2018-01-22T10:52:05.237Z,10.50
2018-01-22T10:57:12.216Z,10.50
2018-01-22T10:59:40.050Z,10.50
2018-01-22T11:02:07.513Z,10.50
2018-01-22T11:15:10.910Z,10.50
2018-01-22T11:17:47.182Z,10.50
2018-01-22T11:20:13.817Z,10.50
2018-01-22T11:22:47.219Z,10.50
2018-01-22T11:25:13.862Z,10.50
2018-01-22T11:30:23.667Z,10.50
2018-01-22T11:38:05.160Z,10.50
2018-01-22T11:40:31.941Z,10.50
2018-01-22T11:43:11.268Z,10.50
2018-01-22T11:48:23.637Z,10.50
2018-01-22T11:50:50.401Z,10.50
2018-01-22T11:53:17.099Z,10.50
2018-01-22T11:55:43.754Z,10.50
2018-01-22T12:03:29.197Z,10.50
2018-01-22T12:05:56.672Z,10.50
2018-01-22T12:08:23.735Z,10.50
2018-01-22T12:10:50.413Z,10.50
2018-01-22T12:13:17.195Z,10.50
2018-01-22T12:15:53.266Z,10.40
2018-01-22T12:18:19.917Z,10.40
2018-01-22T12:20:46.968Z,10.40
2018-01-22T12:23:14.029Z,10.40
2018-01-22T12:25:41.713Z,10.40
2018-01-22T12:28:09.140Z,10.40
2018-01-22T12:36:05.246Z,10.40
2018-01-22T12:41:05.710Z,10.40
2018-01-22T12:46:12.893Z,10.40
2018-01-22T12:51:19.599Z,10.40
2018-01-22T12:53:47.395Z,10.40
2018-01-22T12:56:14.447Z,10.40
2018-01-22T12:58:41.638Z,10.40
2018-01-22T13:01:09.093Z,10.40
2018-01-22T13:03:36.609Z,10.40
2018-01-22T13:06:03.290Z,10.40
2018-01-22T13:08:30.881Z,10.40
2018-01-22T13:10:57.952Z,10.40
2018-01-22T13:16:17.401Z,10.40
2018-01-22T13:18:47.757Z,10.40
2018-01-22T13:21:17.637Z,10.40
2018-01-22T13:23:44.308Z,10.40
2018-01-22T13:26:11.360Z,10.40
2018-01-22T13:36:36.397Z,10.40
2018-01-22T13:39:03.842Z,10.40
2018-01-22T13:41:30.885Z,10.40
2018-01-22T13:44:05.258Z,10.40
2018-01-22T13:49:12.676Z,10.40
2018-01-22T13:51:41.768Z,10.40
2018-01-22T13:54:08.817Z,10.40
2018-01-22T13:56:35.855Z,10.40
2018-01-22T13:59:11.510Z,10.40
2018-01-22T14:01:41.636Z,10.40
2018-01-22T14:04:17.305Z,10.40
2018-01-22T14:06:43.955Z,10.40
2018-01-22T14:09:10.597Z,10.40
2018-01-22T14:11:37.256Z,10.40
2018-01-22T14:16:42.783Z,10.40
2018-01-22T14:19:11.642Z,10.40
2018-01-22T14:21:47.282Z,10.40
2018-01-22T14:24:13.959Z,10.40
2018-01-22T14:29:19.361Z,10.40
2018-01-22T14:31:47.154Z,10.40
2018-01-22T14:36:53.771Z,10.30
2018-01-22T14:39:20.423Z,10.30
2018-01-22T14:41:47.869Z,10.40
2018-01-22T14:44:17.738Z,10.40
2018-01-22T14:46:44.774Z,10.30
2018-01-22T14:49:12.298Z,10.30
2018-01-22T14:51:39.701Z,10.30
2018-01-22T14:56:45.665Z,10.30
2018-01-22T14:59:13.136Z,10.30
2018-01-22T15:01:40.586Z,10.40
2018-01-22T15:04:07.265Z,10.40
2018-01-22T15:06:41.454Z,10.40
2018-01-22T15:09:08.524Z,10.30
2018-01-22T15:11:35.722Z,10.30
2018-01-22T15:14:11.392Z,10.30
2018-01-22T15:16:47.427Z,10.30
2018-01-22T15:19:14.886Z,10.30
2018-01-22T15:21:42.382Z,10.30
2018-01-22T15:24:09.077Z,10.30
2018-01-22T15:26:36.259Z,10.30
2018-01-22T15:29:05.769Z,10.30
2018-01-22T15:31:35.871Z,10.30
2018-01-22T15:34:02.919Z,10.30
2018-01-22T15:36:29.594Z,10.30
2018-01-22T15:38:56.253Z,10.30
2018-01-22T15:41:23.841Z,10.30
2018-01-22T15:43:53.775Z,10.30
2018-01-22T15:46:22.052Z,10.30
2018-01-22T15:48:48.772Z,10.30
2018-01-22T15:51:15.893Z,10.30
2018-01-22T15:53:42.997Z,10.30
2018-01-22T15:56:10.871Z,10.30
2018-01-22T15:58:37.534Z,10.30
2018-01-22T16:01:05.798Z,10.30
2018-01-22T16:03:35.932Z,10.30
2018-01-22T16:06:02.760Z,10.30
2018-01-22T16:08:30.210Z,10.30
2018-01-22T16:10:57.301Z,10.30
2018-01-22T16:13:24.481Z,10.30
2018-01-22T16:23:26.976Z,10.30
2018-01-22T16:25:54.015Z,10.30
2018-01-22T16:30:59.666Z,10.30
2018-01-22T16:33:26.408Z,10.30
2018-01-22T16:35:53.551Z,10.20
2018-01-22T16:38:20.339Z,10.20
2018-01-22T16:40:47.446Z,10.20
2018-01-22T16:45:54.238Z,10.20
2018-01-22T16:48:21.054Z,10.20
2018-01-22T16:50:47.707Z,10.30
2018-01-22T16:53:15.140Z,10.20
2018-01-22T16:55:42.372Z,10.20
2018-01-22T16:58:09.449Z,10.20
2018-01-22T17:00:36.625Z,10.20
2018-01-22T17:08:22.574Z,10.20
2018-01-22T17:10:49.626Z,10.20
2018-01-22T17:15:59.875Z,10.20
2018-01-22T17:18:27.358Z,10.20
2018-01-22T17:20:54.847Z,10.20
2018-01-22T17:23:23.923Z,10.20
2018-01-22T17:25:50.587Z,10.20
2018-01-22T17:28:17.232Z,10.20
2018-01-22T17:30:44.705Z,10.20
2018-01-22T17:33:12.883Z,10.20
2018-01-22T17:35:39.565Z,10.20
2018-01-22T17:38:06.606Z,10.20
2018-01-22T17:40:33.679Z,10.20
2018-01-22T17:43:00.744Z,10.20
2018-01-22T17:45:29.777Z,10.20
2018-01-22T17:47:56.825Z,10.20
2018-01-22T17:50:23.918Z,10.20
2018-01-22T17:52:50.973Z,10.20
2018-01-22T17:55:18.788Z,10.20
2018-01-22T17:57:45.543Z,10.20
2018-01-22T18:00:13.057Z,10.20
2018-01-22T18:08:00.714Z,10.20
2018-01-22T18:10:27.534Z,10.20
2018-01-22T18:12:54.978Z,10.10
2018-01-22T18:17:59.889Z,10.20
2018-01-22T18:20:35.508Z,10.20
2018-01-22T18:23:11.416Z,10.20
2018-01-22T18:25:38.211Z,10.10
2018-01-22T18:30:47.883Z,10.20
2018-01-22T18:33:14.986Z,10.20
2018-01-22T18:35:42.148Z,10.10
2018-01-22T18:38:11.893Z,10.10
2018-01-22T18:40:39.032Z,10.10
2018-01-22T18:43:06.152Z,10.20
2018-01-22T18:45:33.256Z,10.10
2018-01-22T18:48:00.286Z,10.10
2018-01-22T18:50:26.983Z,10.10
2018-01-22T18:52:54.389Z,10.10
2018-01-22T18:55:23.888Z,10.10
2018-01-22T18:57:50.570Z,10.10
2018-01-22T19:00:17.349Z,10.10
2018-01-22T19:08:02.716Z,10.10
2018-01-22T19:10:29.982Z,10.10
2018-01-22T19:23:23.909Z,10.10
2018-01-22T19:28:40.480Z,10.10
2018-01-22T19:31:11.812Z,10.10
2018-01-22T19:33:41.932Z,10.00
2018-01-22T19:36:10.189Z,10.10
2018-01-22T19:38:36.910Z,10.00
2018-01-22T19:41:03.704Z,10.00
2018-01-22T19:43:35.849Z,10.00
2018-01-22T19:46:05.996Z,10.00
2018-01-22T19:48:32.666Z,10.00
2018-01-22T19:50:59.482Z,10.00
2018-01-22T19:53:26.543Z,10.00
2018-01-22T19:55:53.237Z,10.00
2018-01-22T19:58:20.473Z,10.00
2018-01-22T20:00:47.182Z,10.00
2018-01-22T20:03:14.786Z,10.00
2018-01-22T20:05:42.687Z,10.00
2018-01-22T20:08:09.825Z,10.00
2018-01-22T20:10:36.536Z,10.00
2018-01-22T20:13:03.742Z,10.00
2018-01-22T20:15:30.551Z,10.00
2018-01-22T20:23:17.360Z,10.00
2018-01-22T20:25:44.772Z,10.00
2018-01-22T20:33:29.999Z,10.00
2018-01-22T20:35:59.999Z,10.00
2018-01-22T20:38:27.039Z,10.00
2018-01-22T20:40:53.878Z,10.00
2018-01-22T20:43:20.919Z,10.00
2018-01-22T20:45:48.068Z,10.00
2018-01-22T20:48:15.595Z,10.00
2018-01-22T20:53:14.446Z,10.00
2018-01-22T20:55:41.549Z,10.00
2018-01-22T20:58:08.297Z,9.90
2018-01-22T21:00:35.402Z,9.90
2018-01-22T21:08:14.736Z,10.00
2018-01-22T21:10:41.917Z,10.00
2018-01-22T21:13:17.617Z,10.00
2018-01-22T21:18:25.393Z,10.00
2018-01-22T21:20:52.453Z,10.00
2018-01-22T21:23:24.053Z,10.00
2018-01-22T21:25:51.148Z,10.00
2018-01-22T21:28:17.926Z,9.90
2018-01-22T21:30:45.019Z,9.90
2018-01-22T21:33:12.238Z,9.90
2018-01-22T21:35:39.717Z,10.00
2018-01-22T21:38:06.618Z,9.90
2018-01-22T21:40:33.797Z,9.90
2018-01-22T21:43:05.872Z,9.90
2018-01-22T21:45:36.084Z,9.90
2018-01-22T21:50:31.617Z,9.90
2018-01-22T21:52:58.471Z,9.90
2018-01-22T21:55:25.287Z,9.90
2018-01-22T22:03:23.639Z,9.90
2018-01-22T22:05:53.938Z,9.90
2018-01-22T22:08:21.026Z,9.90
2018-01-22T22:10:47.724Z,9.90
2018-01-22T22:13:14.522Z,9.90
2018-01-22T22:15:47.457Z,9.90
2018-01-22T22:18:14.931Z,9.90
2018-01-22T22:23:29.497Z,9.90
2018-01-22T22:36:29.568Z,9.90
2018-01-22T22:38:59.932Z,9.80
2018-01-22T22:43:57.317Z,9.90
2018-01-22T22:46:24.366Z,9.90
2018-01-22T22:48:51.001Z,9.90
2018-01-22T22:51:23.988Z,9.90
2018-01-22T22:53:54.037Z,9.90
2018-01-22T22:56:21.144Z,9.90
2018-01-22T22:58:48.169Z,9.90
2018-01-22T23:01:15.223Z,9.90
2018-01-22T23:03:53.482Z,9.80
2018-01-22T23:11:42.081Z,9.80
2018-01-22T23:19:30.041Z,9.80
2018-01-22T23:21:59.962Z,9.80
2018-01-22T23:24:35.630Z,9.80
2018-01-22T23:27:05.997Z,9.90
2018-01-22T23:29:32.826Z,9.90
2018-01-22T23:37:20.372Z,9.90
2018-01-22T23:39:47.480Z,9.80
2018-01-22T23:42:14.197Z,9.80
2018-01-22T23:50:00.595Z,9.80
2018-01-22T23:52:28.032Z,9.80
2018-01-22T23:54:54.694Z,9.80
2018-01-22T23:57:21.724Z,9.80
2018-01-22T23:59:48.806Z,9.90
